createdAt,value
2023-05-17T00:02:37.665Z,19.5
2023-05-17T00:07:59.228Z,19.5
2023-05-17T00:13:07.115Z,19.5
2023-05-17T00:18:43.589Z,19.5
2023-05-17T00:24:04.367Z,19.4
2023-05-17T00:29:58.240Z,19.4
2023-05-17T00:35:34.710Z,19.5
2023-05-17T00:41:11.022Z,19.4
2023-05-17T00:47:04.738Z,19.4
2023-05-17T00:52:25.981Z,19.4
2023-05-17T00:58:02.512Z,19.4
2023-05-17T01:03:57.567Z,19.4
2023-05-17T01:09:49.197Z,19.4
2023-05-17T01:15:25.037Z,19.4
2023-05-17T01:21:04.767Z,19.4
2023-05-17T01:26:55.357Z,19.4
2023-05-17T01:32:47.178Z,19.4
2023-05-17T01:37:55.034Z,19.4
2023-05-17T01:43:46.808Z,19.4
2023-05-17T01:49:38.413Z,19.4
2023-05-17T01:55:31.732Z,19.4
2023-05-17T02:00:52.330Z,19.4
2023-05-17T02:06:29.684Z,19.4
2023-05-17T02:11:52.962Z,19.4
2023-05-17T02:17:13.189Z,19.4
2023-05-17T02:22:34.963Z,19.4
2023-05-17T02:28:13.466Z,19.4
2023-05-17T02:33:49.712Z,19.4
2023-05-17T02:39:25.857Z,19.4
2023-05-17T02:45:04.060Z,19.4
2023-05-17T02:50:40.440Z,19.4
2023-05-17T02:56:17.455Z,19.4
2023-05-17T03:01:56.119Z,19.4
2023-05-17T03:07:33.395Z,19.4
2023-05-17T03:13:09.144Z,19.4
2023-05-17T03:18:48.216Z,19.4
2023-05-17T03:24:40.552Z,19.4
2023-05-17T03:30:16.847Z,19.4
2023-05-17T03:35:40.708Z,19.4
2023-05-17T03:41:01.142Z,19.4
2023-05-17T03:46:21.508Z,19.4
2023-05-17T03:51:30.181Z,19.4
2023-05-17T03:56:52.006Z,19.4
2023-05-17T04:02:27.804Z,19.4
2023-05-17T04:08:08.851Z,19.4
2023-05-17T04:13:44.851Z,19.4
2023-05-17T04:19:21.624Z,19.4
2023-05-17T04:24:59.508Z,19.4
2023-05-17T04:30:35.253Z,19.4
2023-05-17T04:36:12.435Z,19.4
2023-05-17T04:41:50.031Z,19.4
2023-05-17T04:47:26.232Z,19.3
2023-05-17T04:53:03.336Z,19.4
2023-05-17T04:58:41.642Z,19.4
2023-05-17T05:04:17.839Z,19.3
2023-05-17T05:09:54.084Z,19.3
2023-05-17T05:15:34.122Z,19.3
2023-05-17T05:21:11.650Z,19.3
2023-05-17T05:26:32.598Z,19.3
2023-05-17T05:32:12.479Z,19.3
2023-05-17T05:38:07.715Z,19.3
2023-05-17T05:43:43.291Z,19.3
2023-05-17T05:49:37.334Z,19.3
2023-05-17T05:55:44.181Z,19.3
2023-05-17T06:01:22.499Z,19.3
2023-05-17T06:06:54.927Z,19.3
2023-05-17T06:12:00.597Z,19.8
2023-05-17T06:17:51.803Z,19.6
2023-05-17T06:23:14.739Z,19.6
2023-05-17T06:28:51.263Z,19.6
2023-05-17T06:34:28.944Z,19.6
2023-05-17T06:40:33.519Z,20
2023-05-17T06:45:55.430Z,20.1
2023-05-17T06:51:33.867Z,20.1
2023-05-17T06:57:12.662Z,20.1
2023-05-17T07:02:34.542Z,20.5
2023-05-17T07:07:56.724Z,21
2023-05-17T07:13:34.996Z,21.4
2023-05-17T07:18:58.424Z,21.9
2023-05-17T07:24:19.752Z,22.4
2023-05-17T07:29:44.057Z,22.9
2023-05-17T07:34:49.188Z,23.4
2023-05-17T07:40:26.562Z,23.9
2023-05-17T07:45:49.706Z,24.4
2023-05-17T07:51:13.867Z,24.9
2023-05-17T07:56:35.659Z,25.3
2023-05-17T08:01:58.108Z,25.7
2023-05-17T08:07:18.589Z,26.1
2023-05-17T08:12:40.848Z,26.5
2023-05-17T08:18:30.783Z,27
2023-05-17T08:24:09.142Z,27.4
2023-05-17T08:29:29.606Z,27.9
2023-05-17T08:35:17.896Z,28.4
2023-05-17T08:40:23.846Z,28.9
2023-05-17T08:46:02.233Z,29.4
2023-05-17T08:51:27.745Z,29.8
2023-05-17T08:56:49.505Z,30.1
2023-05-17T09:02:22.892Z,30.6
2023-05-17T09:08:04.605Z,30.9
2023-05-17T09:13:25.824Z,31.3
2023-05-17T09:19:02.222Z,31.7
2023-05-17T09:24:51.416Z,32.1
2023-05-17T09:30:26.652Z,32.4
2023-05-17T09:36:05.500Z,32.6
2023-05-17T09:41:27.756Z,32.9
2023-05-17T09:47:04.390Z,33.1
2023-05-17T09:52:25.164Z,33.4
2023-05-17T09:58:02.353Z,33.7
2023-05-17T10:03:39.005Z,34.1
2023-05-17T10:14:57.828Z,34.8
2023-05-17T10:20:20.493Z,34.8
2023-05-17T10:25:55.874Z,34.8
2023-05-17T10:30:46.275Z,34.8
2023-05-17T10:36:03.399Z,34.8
2023-05-17T10:41:35.024Z,34.8
2023-05-17T10:47:00.965Z,34.7
2023-05-17T10:52:50.066Z,34.7
2023-05-17T10:58:23.376Z,34.6
2023-05-17T11:03:47.038Z,34.6
2023-05-17T11:09:01.258Z,34.6
2023-05-17T11:14:21.474Z,34.6
2023-05-17T11:19:53.677Z,34.5
2023-05-17T11:25:18.816Z,34.5
2023-05-17T11:30:32.620Z,34.4
2023-05-17T11:36:24.972Z,34.4
2023-05-17T11:42:18.602Z,34.2
2023-05-17T11:48:11.356Z,34.3
2023-05-17T11:54:01.276Z,34.4
2023-05-17T11:59:49.185Z,34.5
2023-05-17T12:05:25.021Z,34.7
2023-05-17T12:11:03.961Z,34.8
2023-05-17T12:16:40.037Z,34.9
2023-05-17T12:22:33.546Z,35
2023-05-17T12:28:26.075Z,35.1
2023-05-17T12:34:19.280Z,35.2
2023-05-17T12:39:56.535Z,35.3
2023-05-17T12:46:03.700Z,35.4
2023-05-17T12:51:40.064Z,35.4
2023-05-17T12:57:16.327Z,35.5
2023-05-17T13:08:46.414Z,35.6
2023-05-17T13:14:37.981Z,35.7
2023-05-17T13:20:32.105Z,35.8
2023-05-17T13:26:22.699Z,35.8
2023-05-17T13:31:56.299Z,35.7
2023-05-17T13:37:34.087Z,35.7
2023-05-17T13:43:09.948Z,35.6
2023-05-17T13:53:52.710Z,35.6
2023-05-17T13:59:28.660Z,35.6
2023-05-17T14:04:50.920Z,35.5
2023-05-17T14:10:30.889Z,35.5
2023-05-17T14:16:06.208Z,35.4
2023-05-17T14:21:27.948Z,35.4
2023-05-17T14:27:04.729Z,35.4
2023-05-17T14:32:24.970Z,35.3
2023-05-17T14:37:46.399Z,35.3
2023-05-17T14:43:14.681Z,35.3
2023-05-17T14:48:35.422Z,35.3
2023-05-17T14:53:56.668Z,35.2
2023-05-17T14:59:03.914Z,35.2
2023-05-17T15:04:32.821Z,35.1
2023-05-17T15:09:54.077Z,35.1
2023-05-17T15:15:15.230Z,35.1
2023-05-17T15:20:37.656Z,35.1
2023-05-17T15:26:31.230Z,35
2023-05-17T15:32:09.084Z,34.9
2023-05-17T15:37:45.616Z,34.9
2023-05-17T15:43:36.872Z,34.9
2023-05-17T15:49:06.321Z,34.9
2023-05-17T15:54:41.502Z,34.8
2023-05-17T16:00:33.643Z,34.8
2023-05-17T16:06:10.922Z,34.8
2023-05-17T16:11:46.590Z,34.8
2023-05-17T16:17:21.964Z,34.7
2023-05-17T16:23:15.410Z,34.7
2023-05-17T16:29:05.862Z,34.6
2023-05-17T16:34:57.144Z,34.6
2023-05-17T16:40:49.576Z,34.6
2023-05-17T16:46:39.923Z,34.5
2023-05-17T16:52:31.951Z,34.5
2023-05-17T16:58:24.442Z,34.4
2023-05-17T17:04:16.731Z,34.4
2023-05-17T17:10:07.996Z,34.4
2023-05-17T17:16:17.445Z,34.4
2023-05-17T17:21:56.607Z,34.4
2023-05-17T17:27:48.573Z,34.3
2023-05-17T17:33:41.458Z,34.3
2023-05-17T17:39:16.878Z,34.3
2023-05-17T17:44:52.369Z,34.3
2023-05-17T17:50:45.048Z,34.2
2023-05-17T17:56:07.686Z,34.1
2023-05-17T18:01:44.389Z,34.1
2023-05-17T18:07:36.905Z,34.1
2023-05-17T18:19:03.640Z,34.1
2023-05-17T18:24:41.315Z,34
2023-05-17T18:30:29.198Z,33.9
2023-05-17T18:35:37.665Z,33.9
2023-05-17T18:41:14.800Z,33.9
2023-05-17T18:46:52.676Z,33.9
2023-05-17T18:52:28.089Z,33.9
2023-05-17T18:58:05.344Z,33.9
2023-05-17T19:03:10.641Z,33.8
2023-05-17T19:08:31.767Z,33.8
2023-05-17T19:14:09.644Z,33.8
2023-05-17T19:19:46.845Z,33.8
2023-05-17T19:25:23.732Z,33.7
2023-05-17T19:31:19.222Z,33.7
2023-05-17T19:36:25.499Z,33.6
2023-05-17T19:42:01.232Z,33.6
2023-05-17T19:47:40.008Z,33.6
2023-05-17T19:53:01.289Z,33.6
2023-05-17T19:58:54.629Z,33.6
2023-05-17T20:04:48.426Z,33.5
2023-05-17T20:10:24.685Z,33.5
2023-05-17T20:16:16.583Z,33.5
2023-05-17T20:27:16.758Z,33.4
2023-05-17T20:32:53.859Z,33.4
2023-05-17T20:38:46.750Z,33.4
2023-05-17T20:44:41.620Z,33.4
2023-05-17T20:50:32.879Z,33.3
2023-05-17T20:56:37.098Z,33.3
2023-05-17T21:02:13.156Z,33.3
2023-05-17T21:08:04.732Z,33.3
2023-05-17T21:13:41.447Z,33.2
2023-05-17T21:24:39.750Z,33.2
2023-05-17T21:30:19.005Z,33.1
2023-05-17T21:36:11.511Z,33.1
2023-05-17T21:42:03.255Z,33.1
2023-05-17T21:47:55.679Z,33.1
2023-05-17T21:53:46.788Z,33.1
2023-05-17T21:59:43.158Z,33
2023-05-17T22:05:21.062Z,33
2023-05-17T22:10:58.738Z,33
2023-05-17T22:16:50.092Z,32.9
2023-05-17T22:28:15.016Z,32.9
2023-05-17T22:34:06.443Z,32.9
2023-05-17T22:45:18.062Z,32.8
2023-05-17T22:51:09.560Z,32.8
2023-05-17T22:57:01.514Z,32.8
2023-05-17T23:02:21.809Z,32.8
2023-05-17T23:07:43.131Z,32.8
2023-05-17T23:13:06.636Z,32.8
2023-05-17T23:18:42.406Z,32.7
2023-05-17T23:24:18.943Z,32.7
2023-05-17T23:29:55.611Z,32.6
2023-05-17T23:35:16.796Z,32.6
2023-05-17T23:40:53.234Z,32.6
2023-05-17T23:46:30.488Z,32.6
2023-05-17T23:52:22.101Z,32.6
2023-05-17T23:57:58.464Z,32.6
